createdAt,value
2019-04-27T00:01:35.798Z,14.80
2019-04-27T00:05:05.022Z,14.80
2019-04-27T00:08:19.270Z,14.70
2019-04-27T00:11:31.002Z,14.70
2019-04-27T00:14:35.586Z,14.60
2019-04-27T00:17:58.281Z,14.70
2019-04-27T00:21:18.960Z,14.60
2019-04-27T00:24:23.576Z,14.60
2019-04-27T00:27:27.921Z,14.60
2019-04-27T00:30:33.387Z,14.50
2019-04-27T00:33:38.643Z,14.50
2019-04-27T00:36:51.047Z,14.50
2019-04-27T00:40:08.380Z,14.50
2019-04-27T00:43:14.054Z,14.50
2019-04-27T00:46:18.413Z,14.40
2019-04-27T00:49:23.891Z,14.40
2019-04-27T00:52:28.267Z,14.40
2019-04-27T00:55:34.443Z,14.40
2019-04-27T00:58:45.469Z,14.40
2019-04-27T01:02:14.731Z,14.30
2019-04-27T01:05:23.803Z,14.30
2019-04-27T01:08:28.291Z,14.30
2019-04-27T01:11:33.330Z,14.20
2019-04-27T01:14:37.799Z,14.20
2019-04-27T01:17:42.364Z,14.20
2019-04-27T01:20:46.659Z,14.20
2019-04-27T01:23:50.958Z,14.10
2019-04-27T01:27:32.566Z,14.20
2019-04-27T01:30:41.855Z,14.10
2019-04-27T01:33:46.106Z,14.10
2019-04-27T01:36:50.388Z,14.10
2019-04-27T01:39:54.891Z,14.10
2019-04-27T01:42:59.130Z,14.00
2019-04-27T01:46:03.510Z,14.00
2019-04-27T01:49:09.198Z,14.00
2019-04-27T01:52:13.527Z,14.00
2019-04-27T01:55:18.846Z,13.90
2019-04-27T01:58:23.374Z,13.90
2019-04-27T02:01:41.815Z,13.80
2019-04-27T02:05:05.102Z,13.80
2019-04-27T02:08:09.551Z,13.80
2019-04-27T02:11:14.071Z,13.70
2019-04-27T02:14:19.611Z,13.70
2019-04-27T02:17:24.039Z,13.70
2019-04-27T02:20:29.963Z,13.60
2019-04-27T02:23:34.518Z,13.60
2019-04-27T02:26:39.858Z,13.60
2019-04-27T02:30:04.967Z,13.70
2019-04-27T02:33:30.328Z,13.70
2019-04-27T02:36:34.755Z,13.70
2019-04-27T02:39:39.902Z,13.70
2019-04-27T02:42:46.113Z,13.70
2019-04-27T02:45:50.447Z,13.80
2019-04-27T02:49:00.070Z,13.80
2019-04-27T02:52:09.522Z,13.80
2019-04-27T02:55:13.945Z,13.90
2019-04-27T02:58:21.496Z,13.90
2019-04-27T03:01:26.703Z,13.90
2019-04-27T03:04:31.069Z,14.00
2019-04-27T03:07:35.357Z,14.00
2019-04-27T03:10:40.225Z,14.00
2019-04-27T03:14:03.690Z,14.10
2019-04-27T03:17:16.405Z,14.10
2019-04-27T03:20:31.922Z,14.10
2019-04-27T03:23:36.281Z,14.20
2019-04-27T03:26:45.195Z,14.20
2019-04-27T03:29:49.957Z,14.30
2019-04-27T03:32:56.642Z,14.30
2019-04-27T03:36:02.534Z,14.40
2019-04-27T03:39:10.166Z,14.40
2019-04-27T03:42:15.460Z,14.40
2019-04-27T03:45:20.171Z,14.50
2019-04-27T03:48:24.699Z,14.50
2019-04-27T03:51:40.031Z,14.50
2019-04-27T03:54:46.419Z,14.60
2019-04-27T03:58:00.406Z,14.60
2019-04-27T04:01:05.469Z,14.60
2019-04-27T04:04:10.593Z,14.60
2019-04-27T04:07:16.314Z,14.70
2019-04-27T04:10:20.660Z,14.70
2019-04-27T04:13:39.705Z,14.70
2019-04-27T04:16:53.868Z,14.70
2019-04-27T04:20:01.658Z,14.70
2019-04-27T04:23:06.215Z,14.70
2019-04-27T04:26:10.608Z,14.70
2019-04-27T04:29:14.853Z,14.70
2019-04-27T04:32:19.472Z,14.80
2019-04-27T04:35:26.344Z,14.80
2019-04-27T04:38:30.786Z,14.80
2019-04-27T04:41:43.629Z,14.80
2019-04-27T04:44:56.832Z,14.90
2019-04-27T04:48:04.196Z,14.90
2019-04-27T04:51:10.146Z,14.90
2019-04-27T04:54:14.320Z,14.90
2019-04-27T04:57:21.572Z,14.90
2019-04-27T05:00:24.614Z,14.90
2019-04-27T05:03:28.939Z,14.90
2019-04-27T05:06:33.184Z,14.90
2019-04-27T05:09:37.530Z,14.90
2019-04-27T05:12:41.787Z,14.90
2019-04-27T05:15:46.158Z,14.90
2019-04-27T05:18:50.414Z,14.90
2019-04-27T05:21:54.701Z,14.90
2019-04-27T05:25:01.673Z,14.80
2019-04-27T05:28:06.039Z,14.80
2019-04-27T05:31:10.399Z,14.80
2019-04-27T05:34:14.746Z,14.70
2019-04-27T05:37:27.571Z,14.70
2019-04-27T05:40:25.074Z,14.70
2019-04-27T05:43:36.193Z,14.70
2019-04-27T05:47:05.404Z,14.60
2019-04-27T05:50:13.389Z,14.60
2019-04-27T05:53:18.941Z,14.50
2019-04-27T05:56:23.377Z,14.50
2019-04-27T05:59:46.126Z,14.50
2019-04-27T06:02:50.502Z,14.50
2019-04-27T06:05:54.851Z,14.50
2019-04-27T06:08:59.503Z,14.50
2019-04-27T06:12:03.929Z,14.50
2019-04-27T06:15:09.734Z,14.50
2019-04-27T06:18:14.293Z,14.60
2019-04-27T06:21:19.631Z,14.60
2019-04-27T06:24:24.086Z,14.60
2019-04-27T06:27:30.542Z,14.70
2019-04-27T06:30:34.481Z,14.70
2019-04-27T06:33:40.334Z,14.70
2019-04-27T06:36:44.647Z,14.80
2019-04-27T06:39:49.502Z,14.80
2019-04-27T06:42:54.166Z,14.90
2019-04-27T06:46:01.446Z,14.90
2019-04-27T06:49:05.752Z,14.90
2019-04-27T06:52:10.094Z,15.00
2019-04-27T06:55:14.905Z,15.00
2019-04-27T06:58:20.007Z,15.00
2019-04-27T07:01:24.674Z,15.00
2019-04-27T07:04:29.420Z,15.10
2019-04-27T07:07:34.339Z,15.10
2019-04-27T07:10:39.251Z,15.10
2019-04-27T07:13:43.562Z,15.20
2019-04-27T07:16:48.786Z,15.20
2019-04-27T07:19:57.030Z,15.10
2019-04-27T07:23:01.294Z,15.20
2019-04-27T07:26:05.677Z,15.20
2019-04-27T07:29:10.163Z,15.20
2019-04-27T07:32:14.543Z,15.20
2019-04-27T07:35:19.661Z,15.20
2019-04-27T07:38:24.302Z,15.20
2019-04-27T07:41:29.153Z,15.20
2019-04-27T07:44:55.959Z,15.20
2019-04-27T07:48:00.315Z,15.30
2019-04-27T07:51:04.598Z,15.30
2019-04-27T07:54:09.054Z,15.30
2019-04-27T07:57:14.953Z,15.30
2019-04-27T08:00:19.500Z,15.40
2019-04-27T08:03:23.808Z,15.40
2019-04-27T08:06:29.032Z,15.40
2019-04-27T08:09:33.478Z,15.40
2019-04-27T08:12:38.882Z,15.50
2019-04-27T08:15:43.280Z,15.50
2019-04-27T08:18:49.293Z,15.50
2019-04-27T08:21:53.485Z,15.50
2019-04-27T08:24:59.316Z,15.50
2019-04-27T08:28:26.247Z,15.50
2019-04-27T08:31:38.680Z,15.50
2019-04-27T08:34:42.939Z,15.50
2019-04-27T08:37:47.272Z,15.50
2019-04-27T08:40:51.674Z,15.50
2019-04-27T08:43:55.939Z,15.60
2019-04-27T08:47:00.315Z,15.50
2019-04-27T08:50:04.778Z,15.60
2019-04-27T08:53:09.860Z,15.60
2019-04-27T08:56:14.310Z,15.60
2019-04-27T08:59:19.451Z,15.60
2019-04-27T09:02:23.874Z,15.60
2019-04-27T09:05:28.903Z,15.60
2019-04-27T09:08:45.386Z,15.60
2019-04-27T09:12:01.658Z,15.60
2019-04-27T09:15:19.247Z,15.60
2019-04-27T09:18:25.734Z,15.60
2019-04-27T09:21:49.026Z,15.60
2019-04-27T09:24:53.578Z,15.70
2019-04-27T09:27:59.590Z,15.70
2019-04-27T09:31:03.826Z,15.70
2019-04-27T09:34:08.177Z,15.70
2019-04-27T09:37:12.532Z,15.70
2019-04-27T09:40:17.178Z,15.80
2019-04-27T09:43:21.681Z,15.80
2019-04-27T09:46:26.090Z,15.80
2019-04-27T09:49:32.698Z,15.80
2019-04-27T09:52:36.976Z,15.80
2019-04-27T09:55:41.378Z,15.80
2019-04-27T09:58:47.124Z,15.70
2019-04-27T10:01:51.487Z,15.70
2019-04-27T10:04:56.556Z,15.70
2019-04-27T10:08:00.970Z,15.70
2019-04-27T10:11:05.957Z,15.70
2019-04-27T10:14:10.455Z,15.70
2019-04-27T10:17:14.806Z,15.80
2019-04-27T10:20:19.980Z,15.70
2019-04-27T10:23:24.408Z,15.70
2019-04-27T10:26:28.726Z,15.70
2019-04-27T10:29:33.089Z,15.70
2019-04-27T10:32:37.476Z,15.70
2019-04-27T10:35:41.735Z,15.70
2019-04-27T10:38:46.004Z,15.70
2019-04-27T10:41:50.221Z,15.70
2019-04-27T10:44:56.014Z,15.70
2019-04-27T10:48:00.391Z,15.80
2019-04-27T10:51:07.060Z,15.80
2019-04-27T10:54:10.790Z,15.90
2019-04-27T10:57:15.821Z,16.00
2019-04-27T11:00:27.624Z,16.00
2019-04-27T14:27:46.254Z,15.40
2019-04-27T14:30:50.611Z,15.40
2019-04-27T14:33:55.046Z,15.40
2019-04-27T14:36:59.500Z,15.50
2019-04-27T14:40:04.144Z,15.50
2019-04-27T14:43:08.636Z,15.50
2019-04-27T14:46:13.164Z,15.50
2019-04-27T14:49:18.238Z,15.50
2019-04-27T14:52:23.852Z,15.60
2019-04-27T14:55:29.964Z,15.70
2019-04-27T14:58:34.589Z,15.70
2019-04-27T15:01:40.065Z,15.70
2019-04-27T15:04:45.549Z,15.60
2019-04-27T15:07:50.970Z,15.60
2019-04-27T15:10:55.740Z,15.60
2019-04-27T15:14:02.072Z,15.60
2019-04-27T15:17:06.816Z,15.60
2019-04-27T15:20:16.418Z,15.60
2019-04-27T15:23:20.900Z,15.60
2019-04-27T15:26:25.143Z,15.50
2019-04-27T15:29:31.134Z,15.50
2019-04-27T15:32:55.055Z,15.50
2019-04-27T15:36:07.610Z,15.40
2019-04-27T15:39:18.334Z,15.40
2019-04-27T15:42:51.178Z,15.40
2019-04-27T15:45:49.416Z,15.30
2019-04-27T15:48:54.391Z,15.30
2019-04-27T15:52:00.156Z,15.30
2019-04-27T15:55:11.126Z,15.30
2019-04-27T15:58:12.200Z,15.30
2019-04-27T16:01:18.060Z,15.30
2019-04-27T16:04:23.162Z,15.30
2019-04-27T16:07:32.029Z,15.20
2019-04-27T16:10:37.381Z,15.20
2019-04-27T16:13:41.517Z,15.20
2019-04-27T16:16:46.508Z,15.20
2019-04-27T16:19:54.957Z,15.10
2019-04-27T16:23:03.099Z,15.10
2019-04-27T16:26:11.336Z,15.10
2019-04-27T16:29:13.629Z,15.10
2019-04-27T16:32:18.598Z,15.00
2019-04-27T16:35:23.598Z,15.00
2019-04-27T16:38:36.465Z,15.00
2019-04-27T16:41:42.091Z,15.00
2019-04-27T16:44:49.458Z,15.00
2019-04-27T16:47:56.678Z,15.00
2019-04-27T16:51:00.859Z,15.00
2019-04-27T16:54:05.535Z,14.90
2019-04-27T16:57:10.362Z,14.90
2019-04-27T17:00:18.277Z,14.90
2019-04-27T17:03:22.818Z,14.90
2019-04-27T17:06:29.541Z,14.90
2019-04-27T17:09:36.385Z,14.80
2019-04-27T17:12:45.274Z,14.80
2019-04-27T17:16:01.968Z,14.80
2019-04-27T17:19:14.628Z,14.70
2019-04-27T17:22:20.211Z,14.70
2019-04-27T17:25:24.823Z,14.60
2019-04-27T17:28:40.595Z,14.60
2019-04-27T17:31:50.572Z,14.60
2019-04-27T17:34:55.632Z,14.60
2019-04-27T17:38:03.682Z,14.60
2019-04-27T17:41:11.084Z,14.50
2019-04-27T17:44:12.781Z,14.50
2019-04-27T17:47:20.079Z,14.50
2019-04-27T17:50:25.406Z,14.50
2019-04-27T17:53:33.101Z,14.40
2019-04-27T17:56:48.255Z,14.40
2019-04-27T17:59:44.377Z,14.40
2019-04-27T18:02:50.490Z,14.30
2019-04-27T18:05:54.819Z,14.30
2019-04-27T18:09:03.309Z,14.30
2019-04-27T18:12:09.683Z,14.30
2019-04-27T18:15:22.708Z,14.30
2019-04-27T18:18:37.962Z,14.20
2019-04-27T18:22:04.059Z,14.20
2019-04-27T18:25:09.966Z,14.10
2019-04-27T18:28:20.728Z,14.10
2019-04-27T18:31:25.111Z,14.10
2019-04-27T18:34:29.393Z,14.00
2019-04-27T18:37:35.911Z,14.00
2019-04-27T18:40:40.275Z,14.00
2019-04-27T18:43:50.589Z,13.90
2019-04-27T18:46:53.668Z,13.90
2019-04-27T18:50:11.004Z,13.90
2019-04-27T18:53:23.233Z,13.90
2019-04-27T18:56:24.745Z,13.90
2019-04-27T18:59:29.107Z,13.90
2019-04-27T19:02:34.419Z,13.90
2019-04-27T19:05:40.471Z,13.80
2019-04-27T19:08:45.666Z,13.80
2019-04-27T19:11:56.247Z,13.80
2019-04-27T19:14:56.620Z,13.80
2019-04-27T19:18:00.964Z,13.80
2019-04-27T19:21:05.301Z,13.80
2019-04-27T19:24:09.651Z,13.70
2019-04-27T19:27:24.819Z,13.70
2019-04-27T19:30:33.539Z,13.70
2019-04-27T19:33:39.623Z,13.70
2019-04-27T19:36:44.170Z,13.70
2019-04-27T19:39:49.861Z,13.60
2019-04-27T19:42:54.465Z,13.60
2019-04-27T19:45:58.734Z,13.60
2019-04-27T19:49:03.130Z,13.60
2019-04-27T19:52:08.663Z,13.50
2019-04-27T19:55:13.415Z,13.50
2019-04-27T19:58:19.780Z,13.50
2019-04-27T20:01:38.297Z,13.50
2019-04-27T20:04:46.344Z,13.50
2019-04-27T20:07:50.617Z,13.50
2019-04-27T20:10:55.030Z,13.40
2019-04-27T20:14:00.776Z,13.40
2019-04-27T20:17:05.479Z,13.40
2019-04-27T20:20:09.957Z,13.40
2019-04-27T20:23:14.321Z,13.40
2019-04-27T20:26:18.592Z,13.40
2019-04-27T20:29:22.901Z,13.40
2019-04-27T20:32:27.181Z,13.40
2019-04-27T20:35:31.547Z,13.50
2019-04-27T20:38:37.157Z,13.40
2019-04-27T20:41:41.523Z,13.40
2019-04-27T20:44:45.852Z,13.40
2019-04-27T20:47:52.454Z,13.40
2019-04-27T20:50:56.201Z,13.40
2019-04-27T20:54:01.768Z,13.40
2019-04-27T20:57:06.468Z,13.40
2019-04-27T21:00:11.911Z,13.40
2019-04-27T21:03:44.209Z,13.40
2019-04-27T21:06:52.478Z,13.40
2019-04-27T21:09:56.853Z,13.40
2019-04-27T21:13:02.963Z,13.30
2019-04-27T21:16:07.327Z,13.30
2019-04-27T21:19:11.760Z,13.30
2019-04-27T21:22:19.111Z,13.30
2019-04-27T21:25:29.186Z,13.30
2019-04-27T21:28:34.887Z,13.30
2019-04-27T21:31:39.276Z,13.30
2019-04-27T21:34:43.634Z,13.30
2019-04-27T21:37:48.151Z,13.30
2019-04-27T21:40:52.504Z,13.20
2019-04-27T21:43:56.807Z,13.20
2019-04-27T21:47:01.148Z,13.20
2019-04-27T21:50:05.782Z,13.20
2019-04-27T21:53:21.157Z,13.20
2019-04-27T21:56:25.537Z,13.20
2019-04-27T21:59:30.071Z,13.20
2019-04-27T22:02:35.028Z,13.10
2019-04-27T22:05:41.499Z,13.10
2019-04-27T22:08:45.534Z,13.10
2019-04-27T22:11:51.088Z,13.10
2019-04-27T22:14:55.524Z,13.10
2019-04-27T22:18:00.684Z,13.10
2019-04-27T22:21:06.340Z,13.00
2019-04-27T22:24:19.158Z,13.10
2019-04-27T22:27:23.880Z,13.00
2019-04-27T22:30:28.231Z,13.00
2019-04-27T22:33:32.534Z,13.00
2019-04-27T22:36:36.882Z,13.00
2019-04-27T22:40:01.037Z,13.00
2019-04-27T22:43:24.450Z,12.90
2019-04-27T22:46:30.806Z,12.90
2019-04-27T22:49:35.292Z,12.90
2019-04-27T22:52:41.073Z,12.90
2019-04-27T22:56:03.330Z,12.90
2019-04-27T22:59:14.544Z,12.80
2019-04-27T23:02:24.887Z,12.80
2019-04-27T23:05:29.378Z,12.80
2019-04-27T23:08:33.640Z,12.80
2019-04-27T23:11:37.979Z,12.80
2019-04-27T23:14:42.534Z,12.80
2019-04-27T23:18:04.033Z,12.80
2019-04-27T23:21:08.387Z,12.80
2019-04-27T23:24:12.691Z,12.80
2019-04-27T23:27:16.965Z,12.70
2019-04-27T23:30:23.475Z,12.70
2019-04-27T23:33:27.819Z,12.70
2019-04-27T23:36:32.118Z,12.70
2019-04-27T23:39:36.359Z,12.70
2019-04-27T23:42:41.625Z,12.70
2019-04-27T23:45:46.076Z,12.70
2019-04-27T23:48:52.031Z,12.70
2019-04-27T23:52:15.322Z,12.70
2019-04-27T23:55:20.851Z,12.70
2019-04-27T23:58:25.490Z,12.70
